McElveen, Mississippi
Current Conditions -  °F | °C
As of 2:53 AM on Wednesday 22 Oct 2014 (Local Time) from KMCB Reporting Station
Clear Clear  
Wind Chill: 62°   Ceiling: Unl
Heat Index: 62°   Visibility: 10mi
Dew Point: 56°   Wind: 6mph
Humidity: 80%   Direction: 10°N
Pressure: 30.05"   Gusts: NA
Location:  31.2993°N, 90.4958°W
Report Text: KMCB 220753Z AUTO 01005KT 10SM CLR 17/13 A3005 RMK AO2 SLP170 T01670133
Loading
Personal Weather Stations






























Interactive Weather Map
Tropical Storm Tracking
New forecast layout! Learn more

10-Day Weather Forecast

Advertisements
Track Severe Weather on mobile